createdAt,value
2019-02-05T00:09:16.055Z,3.71
2019-02-05T00:13:21.810Z,3.91
2019-02-05T00:17:27.495Z,3.85
2019-02-05T00:21:33.188Z,3.90
2019-02-05T00:25:38.856Z,3.80
2019-02-05T00:29:45.027Z,3.93
2019-02-05T00:33:50.729Z,4.13
2019-02-05T00:38:17.187Z,4.33
2019-02-05T00:42:23.272Z,4.49
2019-02-05T00:46:28.987Z,4.29
2019-02-05T00:50:34.659Z,4.32
2019-02-05T00:54:40.359Z,4.25
2019-02-05T00:59:19.459Z,4.35
2019-02-05T01:08:22.138Z,4.52
2019-02-05T01:12:28.793Z,4.59
2019-02-05T01:16:34.502Z,4.59
2019-02-05T01:20:40.485Z,4.58
2019-02-05T01:24:46.196Z,4.48
2019-02-05T01:28:51.888Z,4.41
2019-02-05T01:33:16.077Z,4.39
2019-02-05T01:37:21.755Z,4.37
2019-02-05T01:41:27.628Z,4.51
2019-02-05T01:45:33.381Z,4.47
2019-02-05T01:49:39.139Z,4.45
2019-02-05T01:53:44.814Z,4.47
2019-02-05T01:57:50.650Z,4.44
2019-02-05T02:01:56.358Z,4.29
2019-02-05T02:06:02.050Z,4.28
2019-02-05T02:10:26.507Z,4.36
2019-02-05T02:14:32.216Z,4.28
2019-02-05T02:18:37.886Z,4.25
2019-02-05T02:23:16.934Z,4.22
2019-02-05T02:27:22.630Z,4.19
2019-02-05T02:31:28.599Z,4.19
2019-02-05T02:35:34.595Z,4.27
2019-02-05T02:39:41.240Z,4.23
2019-02-05T02:43:46.921Z,4.25
2019-02-05T02:47:54.260Z,4.27
2019-02-05T02:51:59.940Z,4.29
2019-02-05T02:56:17.747Z,4.26
2019-02-05T03:00:24.424Z,4.09
2019-02-05T03:04:30.597Z,4.00
2019-02-05T03:08:36.422Z,3.97
2019-02-05T03:12:42.383Z,4.15
2019-02-05T03:16:48.074Z,4.22
2019-02-05T03:25:23.975Z,3.92
2019-02-05T03:29:29.664Z,3.94
2019-02-05T03:44:19.613Z,3.90
2019-02-05T03:48:25.696Z,3.89
2019-02-05T03:52:36.082Z,3.90
2019-02-05T03:57:30.452Z,3.90
2019-02-05T04:02:16.181Z,3.93
2019-02-05T04:07:17.019Z,3.97
2019-02-05T04:11:33.310Z,4.05
2019-02-05T04:15:55.219Z,4.04
2019-02-05T04:20:14.417Z,4.01
2019-02-05T04:24:36.793Z,3.97
2019-02-05T04:29:09.913Z,3.93
2019-02-05T04:33:36.114Z,3.86
2019-02-05T04:37:58.198Z,3.97
2019-02-05T04:42:29.169Z,3.98
2019-02-05T04:47:03.211Z,3.82
2019-02-05T04:51:16.206Z,3.79
2019-02-05T04:56:01.445Z,3.79
2019-02-05T05:00:48.036Z,3.71
2019-02-05T05:05:03.847Z,3.76
2019-02-05T05:09:16.803Z,3.75
2019-02-05T05:13:22.532Z,3.58
2019-02-05T05:17:28.573Z,3.55
2019-02-05T05:21:34.393Z,3.58
2019-02-05T05:25:40.312Z,3.61
2019-02-05T05:29:46.724Z,3.60
2019-02-05T05:33:52.417Z,3.57
2019-02-05T05:37:58.288Z,3.56
2019-02-05T05:42:03.991Z,3.52
2019-02-05T05:46:09.664Z,3.47
2019-02-05T05:50:16.458Z,3.41
2019-02-05T05:54:22.135Z,3.45
2019-02-05T05:58:27.895Z,3.60
2019-02-05T06:02:33.954Z,3.77
2019-02-05T06:06:39.628Z,3.27
2019-02-05T06:10:45.383Z,2.74
2019-02-05T06:14:51.092Z,2.68
2019-02-05T06:18:56.812Z,2.78
2019-02-05T06:23:02.497Z,2.82
2019-02-05T06:27:08.255Z,2.95
2019-02-05T06:31:13.948Z,2.96
2019-02-05T06:35:19.647Z,2.88
2019-02-05T06:39:25.466Z,2.93
2019-02-05T06:43:31.152Z,2.87
2019-02-05T06:47:37.098Z,2.91
2019-02-05T06:51:42.868Z,3.06
2019-02-05T06:55:49.544Z,2.84
2019-02-05T06:59:55.239Z,2.72
2019-02-05T07:04:00.916Z,2.81
2019-02-05T07:08:06.784Z,3.04
2019-02-05T07:12:12.614Z,3.20
2019-02-05T07:16:18.388Z,3.21
2019-02-05T07:20:24.188Z,3.17
2019-02-05T07:24:30.240Z,3.30
2019-02-05T07:28:36.904Z,3.33
2019-02-05T07:32:42.598Z,3.34
2019-02-05T07:36:48.290Z,3.29
2019-02-05T07:40:53.994Z,3.02
2019-02-05T07:44:59.666Z,2.87
2019-02-05T07:49:05.431Z,3.11
2019-02-05T07:53:11.269Z,2.90
2019-02-05T07:57:17.069Z,2.21
2019-02-05T08:01:22.762Z,2.40
2019-02-05T08:05:36.144Z,3.10
2019-02-05T08:09:41.817Z,3.07
2019-02-05T08:13:47.512Z,2.95
2019-02-05T08:17:53.636Z,3.35
2019-02-05T08:21:59.321Z,3.55
2019-02-05T08:26:05.531Z,3.78
2019-02-05T08:30:24.524Z,3.91
2019-02-05T08:34:30.645Z,3.92
2019-02-05T08:38:36.441Z,3.75
2019-02-05T08:42:42.131Z,3.74
2019-02-05T08:46:47.807Z,3.78
2019-02-05T08:50:55.296Z,3.65
2019-02-05T08:55:01.003Z,3.03
2019-02-05T08:59:06.927Z,3.05
2019-02-05T09:03:13.517Z,3.20
2019-02-05T09:07:19.208Z,4.32
2019-02-05T09:11:24.977Z,5.48
2019-02-05T09:15:30.669Z,5.57
2019-02-05T09:19:36.359Z,5.43
2019-02-05T09:23:42.082Z,5.64
2019-02-05T09:27:47.775Z,6.72
2019-02-05T09:31:54.528Z,7.68
2019-02-05T09:36:00.235Z,9.64
2019-02-05T09:40:17.147Z,10.40
2019-02-05T09:44:22.918Z,10.26
2019-02-05T09:48:28.619Z,10.31
2019-02-05T09:52:34.319Z,9.51
2019-02-05T09:56:40.030Z,9.96
2019-02-05T10:00:45.810Z,10.11
2019-02-05T10:04:51.488Z,11.32
2019-02-05T10:08:57.206Z,11.39
2019-02-05T10:13:02.979Z,11.53
2019-02-05T10:17:08.862Z,12.18
2019-02-05T10:21:14.632Z,12.24
2019-02-05T10:25:20.531Z,12.45
2019-02-05T10:29:26.245Z,13.64
2019-02-05T10:33:32.273Z,12.27
2019-02-05T10:37:38.036Z,11.38
2019-02-05T10:41:43.741Z,11.08
2019-02-05T10:45:49.515Z,10.93
2019-02-05T10:49:55.195Z,10.24
2019-02-05T10:54:00.901Z,9.76
2019-02-05T10:58:07.217Z,9.40
2019-02-05T11:07:43.518Z,10.51
2019-02-05T11:11:49.204Z,10.27
2019-02-05T11:15:54.976Z,11.02
2019-02-05T11:20:00.672Z,13.62
2019-02-05T11:24:06.675Z,16.26
2019-02-05T11:28:12.449Z,17.87
2019-02-05T11:32:18.213Z,19.55
2019-02-05T11:36:23.993Z,20.46
2019-02-05T11:40:33.946Z,21.14
2019-02-05T11:44:39.637Z,21.32
2019-02-05T11:48:45.595Z,21.81
2019-02-05T11:52:51.365Z,23.45
2019-02-05T11:56:57.080Z,24.02
2019-02-05T12:01:04.044Z,23.35
2019-02-05T12:05:09.992Z,22.36
2019-02-05T12:09:20.910Z,21.69
2019-02-05T12:13:26.612Z,20.56
2019-02-05T12:17:32.341Z,19.99
2019-02-05T12:21:38.176Z,19.02
2019-02-05T12:25:44.434Z,18.13
2019-02-05T12:29:50.191Z,18.41
2019-02-05T12:33:56.265Z,18.37
2019-02-05T12:38:02.106Z,18.22
2019-02-05T12:42:07.803Z,18.50
2019-02-05T12:46:13.607Z,17.51
2019-02-05T12:50:22.879Z,17.72
2019-02-05T12:54:28.583Z,18.62
2019-02-05T12:58:34.391Z,19.75
2019-02-05T13:02:41.065Z,19.90
2019-02-05T13:06:46.897Z,17.44
2019-02-05T13:10:53.515Z,15.61
2019-02-05T13:14:59.223Z,15.52
2019-02-05T13:19:05.339Z,16.64
2019-02-05T13:23:10.993Z,17.72
2019-02-05T13:27:16.672Z,17.96
2019-02-05T13:31:22.386Z,18.83
2019-02-05T13:35:29.112Z,19.49
2019-02-05T13:39:35.052Z,16.89
2019-02-05T13:43:40.755Z,14.61
2019-02-05T13:47:46.485Z,13.23
2019-02-05T13:51:52.258Z,12.46
2019-02-05T13:55:58.031Z,11.98
2019-02-05T14:00:05.827Z,11.68
2019-02-05T14:04:11.523Z,11.54
2019-02-05T14:08:17.413Z,11.31
2019-02-05T14:12:42.468Z,11.17
2019-02-05T14:16:48.251Z,11.06
2019-02-05T14:20:54.043Z,10.93
2019-02-05T14:24:59.734Z,10.92
2019-02-05T14:29:05.499Z,10.88
2019-02-05T14:33:11.452Z,10.74
2019-02-05T14:37:17.153Z,10.61
2019-02-05T14:41:22.897Z,10.54
2019-02-05T14:45:28.598Z,10.53
2019-02-05T14:49:35.745Z,10.46
2019-02-05T14:53:41.458Z,10.45
2019-02-05T14:57:47.351Z,10.45
2019-02-05T15:01:53.131Z,10.36
2019-02-05T15:05:58.823Z,10.33
2019-02-05T15:10:10.321Z,10.33
2019-02-05T15:14:16.017Z,10.26
2019-02-05T15:18:21.962Z,10.26
2019-02-05T15:22:27.918Z,10.17
2019-02-05T15:26:33.619Z,10.08
2019-02-05T15:30:42.021Z,9.85
2019-02-05T15:34:47.713Z,9.80
2019-02-05T15:38:53.397Z,9.78
2019-02-05T15:42:59.067Z,9.69
2019-02-05T15:47:04.999Z,9.58
2019-02-05T15:51:10.638Z,9.49
2019-02-05T15:55:20.928Z,9.37
2019-02-05T15:59:25.221Z,9.25
2019-02-05T16:03:30.889Z,9.10
2019-02-05T16:07:37.355Z,8.98
2019-02-05T16:11:43.266Z,8.88
2019-02-05T16:15:49.940Z,8.79
2019-02-05T16:19:55.599Z,8.66
2019-02-05T16:24:01.282Z,8.56
2019-02-05T16:28:07.059Z,8.36
2019-02-05T16:32:17.801Z,8.31
2019-02-05T16:36:20.280Z,8.42
2019-02-05T16:40:32.917Z,8.54
2019-02-05T16:44:38.599Z,8.56
2019-02-05T16:48:44.288Z,8.52
2019-02-05T16:52:51.096Z,8.26
2019-02-05T16:56:56.808Z,7.94
2019-02-05T17:01:02.551Z,7.75
2019-02-05T17:05:08.929Z,7.65
2019-02-05T17:09:16.284Z,7.59
2019-02-05T17:13:21.962Z,7.62
2019-02-05T17:17:27.668Z,7.77
2019-02-05T17:21:33.420Z,7.74
2019-02-05T17:25:39.202Z,7.72
2019-02-05T17:29:45.107Z,7.69
2019-02-05T17:33:50.738Z,7.83
2019-02-05T17:37:56.491Z,7.81
2019-02-05T17:42:02.183Z,7.85
2019-02-05T17:46:07.997Z,7.80
2019-02-05T17:50:14.073Z,7.62
2019-02-05T17:54:19.774Z,7.49
2019-02-05T17:58:26.994Z,7.55
2019-02-05T18:02:33.488Z,7.60
2019-02-05T18:06:40.549Z,7.56
2019-02-05T18:10:46.319Z,7.51
2019-02-05T18:14:51.996Z,7.42
2019-02-05T18:18:57.925Z,7.60
2019-02-05T18:23:03.936Z,7.43
2019-02-05T18:27:18.564Z,7.64
2019-02-05T18:31:24.736Z,7.57
2019-02-05T18:35:30.638Z,7.69
2019-02-05T18:39:36.320Z,7.77
2019-02-05T18:43:42.015Z,7.70
2019-02-05T18:47:48.284Z,7.72
2019-02-05T18:51:53.986Z,7.71
2019-02-05T18:55:59.655Z,7.41
2019-02-05T19:05:29.819Z,6.75
2019-02-05T19:09:35.526Z,6.93
2019-02-05T19:13:41.252Z,6.87
2019-02-05T19:22:38.679Z,6.98
2019-02-05T19:26:45.474Z,6.84
2019-02-05T19:30:52.868Z,6.67
2019-02-05T19:34:58.619Z,6.39
2019-02-05T19:39:06.695Z,6.32
2019-02-05T19:43:23.395Z,6.52
2019-02-05T19:47:29.144Z,6.86
2019-02-05T19:51:34.904Z,6.86
2019-02-05T19:55:41.964Z,6.43
2019-02-05T19:59:47.694Z,6.27
2019-02-05T20:04:17.267Z,6.29
2019-02-05T20:08:22.981Z,6.09
2019-02-05T20:12:28.676Z,6.09
2019-02-05T20:16:34.462Z,6.40
2019-02-05T20:20:40.146Z,6.66
2019-02-05T20:24:46.567Z,6.81
2019-02-05T20:28:52.365Z,7.01
2019-02-05T20:32:58.172Z,6.91
2019-02-05T20:37:03.937Z,6.81
2019-02-05T20:41:09.728Z,6.78
2019-02-05T20:45:17.014Z,6.55
2019-02-05T20:49:22.711Z,6.52
2019-02-05T20:53:47.824Z,6.38
2019-02-05T20:57:54.042Z,6.22
2019-02-05T21:02:19.377Z,5.63
2019-02-05T21:06:25.059Z,5.27
2019-02-05T21:10:33.676Z,5.23
2019-02-05T21:14:39.361Z,5.44
2019-02-05T21:18:45.222Z,5.59
2019-02-05T21:24:16.786Z,5.75
2019-02-05T21:57:15.966Z,5.40
2019-02-05T22:02:15.468Z,5.33
2019-02-05T22:12:18.827Z,5.09
2019-02-05T22:23:16.795Z,5.12
2019-02-05T22:48:19.844Z,5.07
2019-02-05T22:52:26.050Z,4.85
2019-02-05T22:57:16.955Z,4.80
2019-02-05T23:01:32.926Z,4.86
2019-02-05T23:06:16.349Z,5.08
2019-02-05T23:10:29.503Z,5.32
2019-02-05T23:14:35.195Z,5.30
2019-02-05T23:18:41.242Z,4.91
2019-02-05T23:22:47.045Z,4.64
2019-02-05T23:26:55.851Z,4.48
2019-02-05T23:31:01.621Z,4.13
2019-02-05T23:35:09.486Z,3.98
2019-02-05T23:39:15.314Z,4.19
2019-02-05T23:43:21.263Z,3.97
2019-02-05T23:47:27.213Z,3.74
2019-02-05T23:51:32.943Z,3.53
2019-02-05T23:55:38.706Z,3.75
2019-02-05T23:59:44.372Z,3.74
